createdAt,value
2023-04-27T00:01:24.078Z,8.35
2023-04-27T00:03:51.982Z,8.44
2023-04-27T00:06:19.798Z,9.20
2023-04-27T00:08:47.583Z,8.65
2023-04-27T00:11:15.325Z,8.69
2023-04-27T00:13:43.127Z,9.33
2023-04-27T00:16:10.819Z,8.51
2023-04-27T00:18:38.537Z,8.25
2023-04-27T00:21:06.423Z,8.10
2023-04-27T00:23:34.132Z,8.28
2023-04-27T00:26:01.861Z,8.11
2023-04-27T00:28:29.565Z,7.82
2023-04-27T00:31:00.009Z,8.59
2023-04-27T00:33:28.344Z,8.02
2023-04-27T00:36:01.588Z,7.84
2023-04-27T00:38:30.253Z,8.08
2023-04-27T00:41:03.539Z,9.05
2023-04-27T00:43:31.496Z,8.45
2023-04-27T00:45:59.875Z,8.18
2023-04-27T00:48:27.720Z,8.10
2023-04-27T00:50:55.607Z,8.18
2023-04-27T00:53:23.544Z,8.06
2023-04-27T00:55:51.189Z,8.74
2023-04-27T00:58:18.942Z,9.32
2023-04-27T01:00:46.629Z,9.28
2023-04-27T01:03:15.688Z,9.30
2023-04-27T01:05:44.927Z,9.41
2023-04-27T01:08:12.645Z,8.87
2023-04-27T01:10:41.246Z,8.92
2023-04-27T01:13:11.348Z,8.35
2023-04-27T01:15:39.031Z,8.35
2023-04-27T01:18:10.602Z,8.98
2023-04-27T01:20:38.861Z,8.99
2023-04-27T01:23:06.759Z,9.49
2023-04-27T01:25:34.477Z,9.18
2023-04-27T01:28:03.500Z,9.27
2023-04-27T01:30:31.148Z,9.35
2023-04-27T01:32:59.962Z,8.53
2023-04-27T01:35:28.481Z,8.88
2023-04-27T01:38:00.721Z,8.35
2023-04-27T01:40:28.552Z,7.95
2023-04-27T01:42:56.275Z,8.68
2023-04-27T01:45:23.981Z,8.37
2023-04-27T01:47:52.649Z,8.41
2023-04-27T01:50:21.590Z,8.06
2023-04-27T01:52:49.386Z,8.72
2023-04-27T01:55:17.112Z,8.67
2023-04-27T01:57:44.930Z,8.67
2023-04-27T02:00:13.396Z,8.17
2023-04-27T02:02:53.446Z,7.93
2023-04-27T02:05:21.452Z,8.31
2023-04-27T02:07:50.018Z,7.91
2023-04-27T02:10:17.766Z,8.60
2023-04-27T02:12:46.184Z,8.66
2023-04-27T02:15:13.853Z,8.17
2023-04-27T02:17:41.692Z,7.91
2023-04-27T02:20:10.840Z,8.76
2023-04-27T02:22:44.715Z,8.41
2023-04-27T02:25:12.974Z,8.89
2023-04-27T02:27:41.395Z,8.57
2023-04-27T02:30:10.337Z,8.02
2023-04-27T02:32:38.466Z,8.06
2023-04-27T02:35:06.892Z,8.16
2023-04-27T02:37:34.772Z,8.39
2023-04-27T02:40:04.326Z,8.21
2023-04-27T02:42:33.489Z,8.08
2023-04-27T02:45:01.289Z,7.96
2023-04-27T02:47:29.071Z,7.62
2023-04-27T02:49:56.839Z,7.95
2023-04-27T02:52:25.059Z,7.84
2023-04-27T02:54:52.960Z,7.90
2023-04-27T02:57:20.654Z,7.80
2023-04-27T02:59:48.353Z,7.73
2023-04-27T03:02:16.357Z,7.87
2023-04-27T03:04:44.472Z,7.60
2023-04-27T03:07:12.917Z,7.92
2023-04-27T03:09:40.701Z,6.95
2023-04-27T03:12:08.389Z,7.12
2023-04-27T03:14:36.576Z,7.49
2023-04-27T03:17:04.311Z,7.88
2023-04-27T03:19:32.048Z,7.47
2023-04-27T03:21:59.737Z,7.11
2023-04-27T03:24:27.724Z,6.96
2023-04-27T03:26:55.656Z,7.87
2023-04-27T03:29:23.380Z,8.10
2023-04-27T03:31:51.213Z,7.97
2023-04-27T03:34:20.993Z,8.54
2023-04-27T03:36:48.768Z,8.85
2023-04-27T03:39:16.808Z,8.85
2023-04-27T03:41:44.636Z,8.23
2023-04-27T03:44:13.099Z,8.77
2023-04-27T03:46:41.012Z,9.20
2023-04-27T03:49:08.841Z,8.91
2023-04-27T03:51:38.434Z,8.67
2023-04-27T03:54:06.211Z,8.88
2023-04-27T03:56:34.031Z,9.18
2023-04-27T03:59:01.768Z,9.27
2023-04-27T04:01:34.235Z,9.41
2023-04-27T04:04:02.529Z,9.23
2023-04-27T04:06:32.303Z,9.43
2023-04-27T04:09:00.090Z,9.49
2023-04-27T04:11:27.812Z,9.38
2023-04-27T04:13:58.519Z,9.51
2023-04-27T04:16:26.294Z,9.53
2023-04-27T04:18:54.388Z,9.45
2023-04-27T04:21:22.554Z,9.53
2023-04-27T04:23:50.359Z,9.55
2023-04-27T04:26:20.753Z,9.61
2023-04-27T04:28:49.140Z,9.63
2023-04-27T04:31:18.308Z,9.62
2023-04-27T04:33:46.183Z,9.63
2023-04-27T04:36:16.329Z,9.58
2023-04-27T04:38:44.156Z,9.47
2023-04-27T04:41:11.847Z,9.36
2023-04-27T04:43:39.671Z,9.18
2023-04-27T04:46:07.999Z,9.35
2023-04-27T04:48:35.919Z,9.36
2023-04-27T04:51:06.458Z,9.50
2023-04-27T04:53:35.185Z,9.66
2023-04-27T04:56:12.816Z,9.58
2023-04-27T04:58:40.772Z,9.47
2023-04-27T05:01:08.605Z,9.58
2023-04-27T05:03:36.555Z,9.73
2023-04-27T05:06:04.657Z,9.69
2023-04-27T05:08:32.492Z,9.76
2023-04-27T05:11:00.304Z,9.64
2023-04-27T05:13:28.204Z,9.76
2023-04-27T05:15:57.148Z,9.86
2023-04-27T05:18:24.933Z,9.78
2023-04-27T05:20:52.595Z,9.87
2023-04-27T05:23:20.446Z,9.83
2023-04-27T05:25:48.108Z,9.96
2023-04-27T05:28:16.314Z,10.05
2023-04-27T05:30:43.990Z,10.06
2023-04-27T05:33:11.808Z,10.13
2023-04-27T05:35:39.548Z,10.16
2023-04-27T05:38:07.308Z,10.14
2023-04-27T05:40:36.325Z,10.26
2023-04-27T05:43:05.593Z,10.27
2023-04-27T05:45:33.624Z,10.28
2023-04-27T05:48:01.719Z,10.31
2023-04-27T05:50:29.484Z,10.23
2023-04-27T05:52:57.184Z,9.70
2023-04-27T05:55:24.848Z,9.82
2023-04-27T05:58:04.586Z,9.45
2023-04-27T06:00:36.560Z,10.00
2023-04-27T06:03:04.368Z,10.07
2023-04-27T06:05:32.225Z,10.38
2023-04-27T06:08:00.332Z,9.79
2023-04-27T06:10:28.490Z,9.90
2023-04-27T06:12:56.506Z,10.21
2023-04-27T06:15:24.157Z,10.41
2023-04-27T06:17:51.977Z,10.64
2023-04-27T06:20:19.771Z,10.70
2023-04-27T06:22:47.655Z,10.66
2023-04-27T06:25:15.319Z,10.92
2023-04-27T06:27:43.108Z,10.27
2023-04-27T06:30:11.433Z,10.32
2023-04-27T06:32:39.252Z,10.07
2023-04-27T06:35:07.167Z,10.25
2023-04-27T06:37:34.912Z,10.47
2023-04-27T06:40:03.775Z,10.65
2023-04-27T06:42:31.530Z,10.83
2023-04-27T06:44:59.242Z,10.96
2023-04-27T06:47:27.354Z,10.94
2023-04-27T06:49:55.045Z,10.71
2023-04-27T06:52:23.049Z,10.88
2023-04-27T06:54:50.918Z,11.16
2023-04-27T06:57:18.656Z,10.98
2023-04-27T06:59:46.349Z,11.28
2023-04-27T07:02:14.148Z,11.28
2023-04-27T07:04:43.377Z,10.73
2023-04-27T07:07:11.318Z,10.41
2023-04-27T07:09:39.078Z,10.52
2023-04-27T07:12:06.865Z,10.58
2023-04-27T07:14:34.550Z,10.85
2023-04-27T07:17:02.255Z,10.89
2023-04-27T07:19:30.072Z,10.44
2023-04-27T07:21:57.735Z,10.35
2023-04-27T07:24:25.572Z,10.89
2023-04-27T07:26:53.266Z,11.37
2023-04-27T07:29:27.010Z,11.36
2023-04-27T07:31:55.926Z,11.49
2023-04-27T07:34:24.116Z,11.91
2023-04-27T07:36:54.320Z,12.05
2023-04-27T07:39:22.460Z,11.86
2023-04-27T07:41:50.410Z,11.40
2023-04-27T07:44:18.905Z,11.90
2023-04-27T07:46:49.736Z,12.15
2023-04-27T07:49:17.524Z,11.48
2023-04-27T07:51:45.179Z,10.89
2023-04-27T07:54:12.982Z,11.84
2023-04-27T07:56:42.179Z,12.40
2023-04-27T07:59:09.989Z,11.83
2023-04-27T08:01:37.833Z,12.00
2023-04-27T08:04:05.996Z,12.72
2023-04-27T08:06:34.282Z,11.88
2023-04-27T08:09:04.302Z,11.88
2023-04-27T08:11:32.132Z,11.75
2023-04-27T08:13:59.981Z,12.54
2023-04-27T08:16:27.968Z,12.56
2023-04-27T08:18:55.807Z,12.10
2023-04-27T08:21:23.493Z,12.34
2023-04-27T08:23:51.275Z,12.44
2023-04-27T08:26:18.975Z,12.19
2023-04-27T08:28:47.432Z,12.81
2023-04-27T08:31:15.149Z,12.21
2023-04-27T08:33:42.934Z,12.28
2023-04-27T08:36:10.726Z,12.84
2023-04-27T08:38:38.481Z,13.33
2023-04-27T08:41:20.298Z,12.74
2023-04-27T08:43:50.438Z,13.42
2023-04-27T08:46:21.589Z,13.36
2023-04-27T08:48:53.113Z,13.03
2023-04-27T08:51:21.349Z,13.18
2023-04-27T08:53:57.991Z,13.08
2023-04-27T08:56:28.002Z,12.63
2023-04-27T08:58:56.867Z,12.23
2023-04-27T09:01:25.340Z,12.54
2023-04-27T09:03:57.093Z,12.39
2023-04-27T09:06:31.814Z,12.87
2023-04-27T09:09:00.029Z,12.83
2023-04-27T09:11:38.102Z,12.64
2023-04-27T09:14:22.486Z,12.99
2023-04-27T09:17:00.163Z,12.72
2023-04-27T09:19:28.886Z,12.66
2023-04-27T09:22:11.225Z,12.68
2023-04-27T09:24:39.227Z,12.99
2023-04-27T09:27:07.226Z,12.75
2023-04-27T09:29:35.545Z,12.89
2023-04-27T09:32:15.459Z,12.71
2023-04-27T09:34:44.556Z,12.67
2023-04-27T09:37:12.298Z,12.65
2023-04-27T09:39:40.040Z,12.46
2023-04-27T09:42:08.509Z,12.69
2023-04-27T09:44:36.296Z,13.64
2023-04-27T09:47:04.834Z,13.24
2023-04-27T09:49:32.582Z,12.56
2023-04-27T09:52:00.357Z,12.70
2023-04-27T09:54:30.078Z,12.85
2023-04-27T09:57:08.737Z,13.24
2023-04-27T09:59:46.811Z,12.86
2023-04-27T10:02:24.878Z,12.80
2023-04-27T10:05:20.010Z,12.64
2023-04-27T10:07:48.096Z,13.03
2023-04-27T10:10:18.013Z,13.20
2023-04-27T10:12:58.478Z,13.85
2023-04-27T10:15:27.957Z,13.92
2023-04-27T10:17:59.056Z,13.65
2023-04-27T10:20:31.318Z,13.45
2023-04-27T10:22:59.212Z,13.39
2023-04-27T10:25:38.199Z,13.70
2023-04-27T10:28:08.068Z,13.64
2023-04-27T10:30:39.207Z,13.57
2023-04-27T10:33:10.979Z,12.93
2023-04-27T10:35:43.116Z,12.71
2023-04-27T10:38:21.730Z,13.57
2023-04-27T10:40:55.210Z,13.09
2023-04-27T10:43:27.261Z,13.02
2023-04-27T10:45:55.703Z,12.99
2023-04-27T10:48:23.525Z,12.49
2023-04-27T10:50:51.858Z,13.01
2023-04-27T10:53:19.644Z,13.27
2023-04-27T10:55:47.349Z,13.19
2023-04-27T10:58:15.199Z,13.43
2023-04-27T11:00:44.374Z,13.50
2023-04-27T11:03:14.933Z,14.09
2023-04-27T11:05:43.993Z,13.51
2023-04-27T11:08:15.774Z,13.44
2023-04-27T11:10:50.126Z,13.23
2023-04-27T11:13:22.143Z,13.48
2023-04-27T11:15:57.839Z,13.32
2023-04-27T11:18:27.024Z,13.34
2023-04-27T11:21:06.954Z,13.25
2023-04-27T11:23:41.254Z,13.37
2023-04-27T11:26:22.123Z,12.91
2023-04-27T11:29:05.723Z,13.50
2023-04-27T11:31:49.688Z,13.67
2023-04-27T11:34:22.833Z,13.80
2023-04-27T11:37:10.828Z,14.30
2023-04-27T11:39:45.853Z,13.89
2023-04-27T11:42:22.125Z,14.53
2023-04-27T11:44:57.236Z,14.50
2023-04-27T11:47:27.616Z,13.88
2023-04-27T11:49:56.802Z,14.52
2023-04-27T11:52:34.196Z,14.04
2023-04-27T11:55:02.279Z,14.70
2023-04-27T11:57:31.364Z,13.91
2023-04-27T12:00:03.041Z,14.21
2023-04-27T12:02:42.074Z,13.32
2023-04-27T12:05:12.261Z,13.26
2023-04-27T12:07:41.256Z,13.37
2023-04-27T12:10:09.560Z,13.45
2023-04-27T12:12:37.254Z,13.63
2023-04-27T12:15:05.422Z,13.54
2023-04-27T12:17:33.177Z,13.36
2023-04-27T12:20:01.118Z,13.55
2023-04-27T12:22:28.958Z,13.41
2023-04-27T12:24:56.900Z,13.19
2023-04-27T12:27:24.845Z,12.89
2023-04-27T12:29:54.354Z,13.26
2023-04-27T12:32:22.655Z,13.12
2023-04-27T12:34:50.900Z,13.83
2023-04-27T12:37:18.545Z,12.79
2023-04-27T12:39:46.282Z,13.64
2023-04-27T12:42:13.967Z,12.88
2023-04-27T12:44:41.748Z,13.08
2023-04-27T12:47:09.591Z,13.06
2023-04-27T12:49:37.918Z,13.15
2023-04-27T12:52:05.608Z,13.42
2023-04-27T12:54:33.425Z,13.70
2023-04-27T12:57:06.343Z,13.58
2023-04-27T12:59:34.532Z,13.78
2023-04-27T13:02:02.603Z,13.96
2023-04-27T13:04:31.272Z,13.91
2023-04-27T13:07:01.643Z,14.13
2023-04-27T13:09:29.383Z,13.49
2023-04-27T13:14:28.198Z,13.55
2023-04-27T13:16:56.016Z,13.33
2023-04-27T13:19:23.794Z,13.39
2023-04-27T13:21:51.560Z,13.61
2023-04-27T13:24:19.311Z,13.67
2023-04-27T13:26:47.056Z,13.60
2023-04-27T13:29:14.721Z,13.84
2023-04-27T13:31:42.436Z,13.82
2023-04-27T13:34:10.147Z,14.17
2023-04-27T13:36:37.915Z,14.65
2023-04-27T13:39:06.508Z,14.12
2023-04-27T13:41:35.035Z,13.95
2023-04-27T13:44:02.827Z,13.66
2023-04-27T13:46:30.822Z,13.85
2023-04-27T13:48:58.526Z,13.97
2023-04-27T13:51:28.025Z,13.77
2023-04-27T13:53:55.956Z,13.22
2023-04-27T13:56:23.730Z,14.01
2023-04-27T13:58:51.450Z,13.59
2023-04-27T14:01:20.132Z,13.43
2023-04-27T14:03:48.075Z,13.50
2023-04-27T14:06:15.963Z,13.43
2023-04-27T14:08:43.654Z,12.78
2023-04-27T14:11:14.527Z,12.83
2023-04-27T14:13:42.260Z,13.15
2023-04-27T14:16:10.058Z,13.84
2023-04-27T14:18:37.791Z,13.37
2023-04-27T14:21:05.600Z,13.15
2023-04-27T14:23:33.260Z,12.79
2023-04-27T14:26:01.065Z,12.58
2023-04-27T14:28:28.957Z,12.70
2023-04-27T14:30:56.732Z,12.62
2023-04-27T14:33:24.404Z,12.25
2023-04-27T14:35:52.191Z,12.57
2023-04-27T14:38:19.846Z,13.31
2023-04-27T14:40:47.592Z,13.41
2023-04-27T14:43:15.265Z,13.09
2023-04-27T14:45:52.468Z,13.28
2023-04-27T14:48:21.910Z,13.29
2023-04-27T14:50:49.604Z,12.86
2023-04-27T14:53:17.390Z,12.62
2023-04-27T14:55:45.976Z,12.15
2023-04-27T14:58:13.810Z,12.70
2023-04-27T15:00:41.651Z,13.18
2023-04-27T15:03:09.975Z,12.94
2023-04-27T15:05:37.941Z,12.78
2023-04-27T15:08:05.775Z,12.66
2023-04-27T15:10:33.522Z,12.13
2023-04-27T15:13:04.220Z,12.44
2023-04-27T15:15:31.980Z,12.30
2023-04-27T15:17:59.764Z,12.20
2023-04-27T15:20:27.705Z,12.52
2023-04-27T15:22:55.476Z,12.69
2023-04-27T15:25:23.275Z,13.19
2023-04-27T15:27:51.191Z,12.82
2023-04-27T15:30:18.940Z,12.29
2023-04-27T15:32:47.540Z,11.79
2023-04-27T15:35:15.399Z,12.38
2023-04-27T15:37:43.284Z,12.98
2023-04-27T15:40:11.645Z,12.09
2023-04-27T15:42:39.302Z,12.53
2023-04-27T15:45:09.753Z,12.86
2023-04-27T15:47:37.834Z,11.84
2023-04-27T15:50:06.645Z,12.11
2023-04-27T15:52:34.346Z,12.38
2023-04-27T15:55:04.233Z,11.94
2023-04-27T15:57:31.896Z,11.62
2023-04-27T15:59:59.675Z,12.07
2023-04-27T16:02:27.571Z,11.89
2023-04-27T16:04:56.456Z,11.46
2023-04-27T16:07:24.161Z,11.29
2023-04-27T16:09:51.977Z,11.91
2023-04-27T16:12:19.894Z,11.92
2023-04-27T16:14:47.556Z,11.80
2023-04-27T16:17:15.383Z,11.90
2023-04-27T16:19:43.776Z,11.95
2023-04-27T16:22:12.300Z,12.12
2023-04-27T16:24:40.003Z,11.60
2023-04-27T16:27:07.917Z,11.27
2023-04-27T16:29:35.620Z,11.88
2023-04-27T16:32:03.487Z,11.10
2023-04-27T16:34:31.298Z,10.63
2023-04-27T16:36:59.027Z,11.33
2023-04-27T16:39:26.704Z,10.52
2023-04-27T16:41:54.442Z,10.23
2023-04-27T16:44:23.701Z,11.09
2023-04-27T16:46:52.046Z,11.07
2023-04-27T16:49:19.803Z,10.39
2023-04-27T16:51:47.556Z,10.39
2023-04-27T16:54:16.625Z,10.56
2023-04-27T16:56:45.789Z,10.43
2023-04-27T16:59:13.819Z,10.43
2023-04-27T17:01:41.888Z,10.00
2023-04-27T17:04:10.755Z,10.20
2023-04-27T17:06:40.103Z,10.44
2023-04-27T17:09:08.380Z,10.91
2023-04-27T17:11:37.135Z,10.24
2023-04-27T17:14:04.831Z,10.58
2023-04-27T17:16:32.604Z,9.96
2023-04-27T17:19:00.270Z,9.30
2023-04-27T17:21:28.068Z,9.36
2023-04-27T17:23:55.758Z,10.06
2023-04-27T17:26:23.492Z,9.86
2023-04-27T17:28:51.160Z,9.63
2023-04-27T17:31:18.954Z,9.41
2023-04-27T17:33:46.674Z,8.86
2023-04-27T17:36:15.108Z,9.82
2023-04-27T17:38:42.909Z,9.39
2023-04-27T17:41:10.797Z,9.61
2023-04-27T17:43:38.846Z,9.72
2023-04-27T17:46:10.028Z,9.69
2023-04-27T17:48:38.017Z,9.42
2023-04-27T17:51:05.831Z,9.37
2023-04-27T17:53:33.593Z,9.41
2023-04-27T17:56:01.522Z,9.71
2023-04-27T17:58:29.247Z,9.40
2023-04-27T18:00:57.028Z,9.96
2023-04-27T18:03:26.831Z,9.72
2023-04-27T18:05:55.097Z,9.63
2023-04-27T18:08:22.834Z,10.10
2023-04-27T18:10:50.707Z,9.18
2023-04-27T18:13:18.417Z,10.00
2023-04-27T18:15:46.176Z,9.78
2023-04-27T18:18:16.878Z,9.47
2023-04-27T18:20:44.998Z,9.91
2023-04-27T18:23:12.695Z,9.39
2023-04-27T18:25:40.436Z,10.19
2023-04-27T18:28:08.946Z,10.29
2023-04-27T18:30:36.823Z,10.47
2023-04-27T18:33:04.588Z,10.58
2023-04-27T18:35:32.888Z,10.59
2023-04-27T18:38:00.665Z,11.07
2023-04-27T18:40:28.500Z,11.16
2023-04-27T18:42:56.187Z,11.05
2023-04-27T18:45:24.052Z,10.88
2023-04-27T18:47:51.827Z,11.17
2023-04-27T18:50:19.727Z,10.56
2023-04-27T18:52:47.589Z,10.81
2023-04-27T18:55:16.707Z,10.40
2023-04-27T18:57:44.978Z,10.47
2023-04-27T19:00:13.254Z,10.56
2023-04-27T19:02:41.206Z,10.50
2023-04-27T19:05:13.587Z,10.35
2023-04-27T19:07:41.654Z,10.68
2023-04-27T19:10:09.924Z,10.58
2023-04-27T19:12:37.857Z,9.88
2023-04-27T19:15:06.208Z,10.24
2023-04-27T19:17:34.913Z,9.78
2023-04-27T19:20:02.797Z,9.37
2023-04-27T19:22:34.264Z,8.99
2023-04-27T19:25:02.317Z,9.36
2023-04-27T19:27:30.041Z,9.72
2023-04-27T19:29:58.251Z,10.03
2023-04-27T19:32:27.315Z,10.01
2023-04-27T19:34:56.241Z,9.96
2023-04-27T19:37:27.587Z,10.01
2023-04-27T19:39:55.614Z,9.18
2023-04-27T19:42:24.912Z,9.58
2023-04-27T19:44:52.632Z,9.90
2023-04-27T19:47:20.381Z,8.64
2023-04-27T19:49:48.043Z,9.30
2023-04-27T19:52:15.765Z,9.16
2023-04-27T19:54:43.486Z,9.37
2023-04-27T19:57:11.219Z,9.22
2023-04-27T19:59:38.913Z,8.74
2023-04-27T20:02:06.804Z,9.26
2023-04-27T20:04:35.276Z,9.56
2023-04-27T20:07:05.052Z,9.55
2023-04-27T20:09:33.528Z,9.64
2023-04-27T20:12:01.338Z,8.61
2023-04-27T20:14:31.238Z,8.40
2023-04-27T20:16:59.848Z,7.97
2023-04-27T20:19:27.513Z,7.58
2023-04-27T20:21:55.316Z,8.67
2023-04-27T20:24:23.321Z,8.99
2023-04-27T20:26:51.059Z,9.19
2023-04-27T20:29:18.712Z,9.30
2023-04-27T20:31:48.521Z,8.75
2023-04-27T20:34:16.524Z,9.09
2023-04-27T20:36:44.453Z,8.91
2023-04-27T20:39:12.238Z,8.81
2023-04-27T20:41:44.296Z,8.43
2023-04-27T20:44:13.105Z,8.10
2023-04-27T20:46:40.948Z,8.56
2023-04-27T20:49:08.995Z,7.59
2023-04-27T20:51:36.737Z,8.13
2023-04-27T20:54:04.624Z,8.61
2023-04-27T20:56:33.006Z,8.74
2023-04-27T20:59:00.740Z,8.76
2023-04-27T21:01:28.640Z,8.46
2023-04-27T21:03:56.545Z,8.66
2023-04-27T21:06:24.317Z,7.59
2023-04-27T21:08:52.029Z,8.19
2023-04-27T21:11:20.529Z,7.97
2023-04-27T21:13:48.195Z,6.97
2023-04-27T21:16:16.214Z,8.02
2023-04-27T21:18:43.907Z,7.06
2023-04-27T21:21:11.653Z,7.30
2023-04-27T21:23:39.344Z,7.11
2023-04-27T21:26:07.523Z,7.21
2023-04-27T21:28:35.300Z,7.40
2023-04-27T21:31:03.358Z,7.80
2023-04-27T21:33:32.093Z,6.64
2023-04-27T21:35:59.885Z,7.30
2023-04-27T21:38:27.556Z,6.92
2023-04-27T21:40:55.397Z,7.58
2023-04-27T21:43:23.064Z,7.54
2023-04-27T21:45:50.778Z,7.34
2023-04-27T21:48:18.513Z,7.33
2023-04-27T21:50:46.266Z,6.24
2023-04-27T21:53:15.856Z,6.88
2023-04-27T21:55:43.708Z,6.92
2023-04-27T21:58:11.656Z,6.57
2023-04-27T22:00:39.367Z,5.90
2023-04-27T22:03:07.688Z,5.45
2023-04-27T22:05:37.270Z,5.53
2023-04-27T22:08:05.119Z,5.56
2023-04-27T22:10:32.779Z,5.88
2023-04-27T22:13:08.091Z,5.58
2023-04-27T22:15:45.954Z,5.25
2023-04-27T22:18:14.906Z,6.10
2023-04-27T22:20:42.814Z,6.27
2023-04-27T22:23:10.852Z,6.30
2023-04-27T22:25:38.736Z,5.66
2023-04-27T22:28:06.457Z,5.13
2023-04-27T22:30:35.065Z,5.24
2023-04-27T22:33:03.185Z,4.80
2023-04-27T22:35:30.969Z,4.81
2023-04-27T22:37:59.346Z,4.53
2023-04-27T22:40:27.053Z,4.45
2023-04-27T22:42:55.163Z,4.94
2023-04-27T22:45:23.368Z,4.56
2023-04-27T22:47:51.250Z,4.56
2023-04-27T22:50:19.082Z,5.11
2023-04-27T22:52:46.872Z,4.60
2023-04-27T22:55:14.619Z,4.49
2023-04-27T22:57:42.370Z,4.24
2023-04-27T23:00:13.036Z,4.89
2023-04-27T23:02:41.105Z,4.81
2023-04-27T23:05:09.284Z,4.93
2023-04-27T23:07:37.158Z,4.52
2023-04-27T23:10:06.011Z,5.09
2023-04-27T23:12:33.992Z,4.96
2023-04-27T23:15:01.690Z,4.24
2023-04-27T23:17:32.415Z,4.66
2023-04-27T23:20:01.019Z,4.48
2023-04-27T23:22:28.764Z,4.43
2023-04-27T23:24:56.762Z,4.70
2023-04-27T23:27:25.001Z,4.52
2023-04-27T23:29:53.039Z,3.43
2023-04-27T23:32:20.926Z,3.39
2023-04-27T23:34:48.886Z,3.45
2023-04-27T23:37:17.262Z,3.55
2023-04-27T23:39:44.943Z,4.04
2023-04-27T23:42:12.733Z,4.24
2023-04-27T23:44:40.434Z,3.84
2023-04-27T23:47:08.738Z,4.63
2023-04-27T23:49:36.477Z,4.85
2023-04-27T23:52:05.063Z,4.92
2023-04-27T23:54:32.787Z,5.08
2023-04-27T23:57:00.591Z,4.74
2023-04-27T23:59:28.282Z,4.45
